contacte
inicio
- ACTUALIZADO a las 13:03
Cámara en vivo
A 5 metros de altura
Dirección Noreste
Datos del día de Ayer
22/6/24
Time         Wind Dir   Wind Spd  Wind Gust     Hum In   Humidity    Temp In       Temp  Raw Barom   Tot Rain
                    °      km/hr      km/hr          %          %         °C         °C         mb         mm
0:00              225          3         23         47         52       26.1       24.7    1018.08     313.00
0:20              170          3         11         47         61       26.1       23.8    1018.35     313.00
0:40              167          0          5         48         64       26.1       22.7    1018.89     313.00
1:00              205          0         16         48         67       26.1       21.8    1018.69     313.00
1:20              265          0         21         48         67       25.9       21.6    1018.42     313.00
1:40              227          0          8         48         67       25.9       21.7    1018.55     313.00
2:00              227          0          8         49         69       25.9       21.3    1018.52     313.00
2:20              313          0         10         49         69       25.8       21.2    1018.49     313.00
2:40                5          0          0         49         69       25.8       21.0    1018.32     313.00
3:00                5          0          0         49         69       25.8       20.8    1018.22     313.00
3:20                5          0          0         49         71       25.7       20.3    1018.18     313.00
3:40                5          0          0         50         73       25.7       19.9    1018.01     313.00
4:00                5          0          0         50         73       25.6       19.9    1017.88     313.00
4:20                5          0          0         50         72       25.6       19.8    1017.74     313.00
4:40                5          0          0         50         73       25.5       19.3    1017.84     313.00
5:00                5          0          0         50         73       25.4       19.2    1017.88     313.00
5:20                5          0          2         50         72       25.4       19.0    1017.91     313.00
5:40                5          0          2         50         72       25.3       18.7    1017.88     313.00
6:00                5          0          2         50         72       25.3       18.3    1017.91     313.00
6:20                5          0          0         50         73       25.2       18.2    1017.91     313.00
6:40                5          0          2         49         72       25.1       18.1    1018.15     313.00
7:00                5          0          2         49         73       25.1       17.9    1018.18     313.00
7:20                5          0          0         49         71       25.1       18.1    1018.25     313.00
7:40                5          0          0         49         71       24.9       18.4    1018.28     313.00
8:00                5          0          0         49         70       24.9       19.4    1018.18     313.00
8:20                5          0          0         49         70       24.9       20.2    1018.28     313.00
8:40                5          0          3         50         67       25.1       21.5    1018.35     313.00
9:00               12          0          5         50         62       25.4       22.4    1018.28     313.00
9:20               17          2          6         49         59       25.7       23.5    1018.55     313.00
9:40               34          0         14         49         54       26.0       24.7    1018.72     313.00
9:57               61          8         26         48         49       26.2       25.4    1018.69     313.00
10:20              63         14         24         47         48       26.5       26.0    1018.76     313.00
10:40              53         10         29         47         46       26.7       26.7    1018.72     313.00
11:00              52         10         29         46         46       26.7       27.0    1018.82     313.00
11:20              70          5         23         47         45       26.6       27.8    1018.69     313.00
11:40              79         18         24         47         44       26.7       28.4    1018.65     313.00
12:00              43          0         24         47         43       26.8       29.0    1018.49     313.00
12:20              67         10         24         46         41       26.9       29.6    1018.49     313.00
12:40              18          0         18         46         39       27.1       30.4    1018.38     313.00
13:00             105         11         31         45         36       27.2       31.0    1018.22     313.00
13:20             124          0         19         44         35       27.2       31.4    1018.05     313.00
13:40              90          2         13         44         36       27.3       31.9    1017.74     313.00
14:00             328          0         14         44         32       27.3       32.4    1017.34     313.00
14:20              66          0         27         41         30       27.4       33.3    1017.07     313.00
14:40              44          6         18         40         31       27.6       33.8    1016.69     313.00
15:00             133          8         29         40         30       27.7       33.8    1016.49     313.00
15:20              25          0         26         39         28       27.8       34.4    1016.29     313.00
15:40              57          2         24         39         27       28.0       34.7    1015.98     313.00
16:00             118          0         27         38         28       28.1       34.9    1015.65     313.00
16:20              65          2         31         37         27       28.2       35.2    1015.48     313.00
16:40              89          5         21         37         27       28.4       35.4    1015.24     313.00
17:00             360          2         24         37         27       28.5       35.7    1015.11     313.00
17:20              82          0         16         36         26       28.7       36.3    1014.83     313.00
17:38              73          8         14         36         26       28.8       36.2    1014.60     313.00
18:00             115          3         14         36         26       29.0       36.1    1014.33     313.00
18:20             104         10         18         35         26       29.2       36.3    1013.89     313.00
18:40             165          0         14         35         25       29.3       36.3    1013.79     313.00
19:00              91          0         14         34         25       29.4       36.7    1013.55     313.00
19:20              59          0          2         34         24       29.6       36.8    1013.41     313.00
19:40             190          0          0         33         24       29.7       37.1    1013.21     313.00
20:00              89          0          2         35         24       29.8       36.7    1013.28     313.00
20:20             149          0          0         35         24       29.7       36.6    1013.25     313.00
20:40             236          2          8         37         28       29.7       36.1    1013.31     313.00
21:00             237          0         18         36         31       29.7       34.6    1013.48     313.00
21:20             241          8         32         37         32       29.7       33.6    1013.52     313.00
21:40             254          3         18         37         34       29.6       32.3    1013.52     313.00
22:00             253          3         18         37         36       29.6       31.3    1013.79     313.00
22:20             261          0         11         38         39       29.5       30.2    1014.02     313.00
22:40             268          0          5         38         39       29.4       29.6    1014.33     313.00
23:00             311          0          6         37         40       29.3       29.1    1014.46     313.00
23:20             198          0         11         38         43       29.2       28.3    1014.40     313.00
23:40             194          0         11         38         49       29.0       26.6    1014.50     313.00
Miembro de: